sensor_id;sensor_type;location;lat;lon;timestamp;P1;P2;P0
48893;PMS5003;34710;35.798;139.446;2023-03-24T00:02:24;0;0;
48893;PMS5003;34710;35.798;139.446;2023-03-24T00:04:49;1;0;
48893;PMS5003;34710;35.798;139.446;2023-03-24T00:07:14;0;0;
48893;PMS5003;34710;35.798;139.446;2023-03-24T00:09:39;0;0;
48893;PMS5003;34710;35.798;139.446;2023-03-24T00:12:04;2;1;
48893;PMS5003;34710;35.798;139.446;2023-03-24T00:14:29;0;0;
48893;PMS5003;34710;35.798;139.446;2023-03-24T00:16:54;1;0;
48893;PMS5003;34710;35.798;139.446;2023-03-24T00:19:19;0;0;
48893;PMS5003;34710;35.798;139.446;2023-03-24T00:21:44;0;0;
48893;PMS5003;34710;35.798;139.446;2023-03-24T00:24:10;0;0;
48893;PMS5003;34710;35.798;139.446;2023-03-24T00:26:35;0;0;
48893;PMS5003;34710;35.798;139.446;2023-03-24T00:28:59;0;0;
48893;PMS5003;34710;35.798;139.446;2023-03-24T00:31:24;0;0;
48893;PMS5003;34710;35.798;139.446;2023-03-24T00:33:49;0;0;
48893;PMS5003;34710;35.798;139.446;2023-03-24T00:36:14;0;0;
48893;PMS5003;34710;35.798;139.446;2023-03-24T00:38:40;0;0;
48893;PMS5003;34710;35.798;139.446;2023-03-24T00:41:05;0;0;
48893;PMS5003;34710;35.798;139.446;2023-03-24T00:43:29;0;0;
48893;PMS5003;34710;35.798;139.446;2023-03-24T00:45:57;1;1;
48893;PMS5003;34710;35.798;139.446;2023-03-24T00:48:20;0;0;
48893;PMS5003;34710;35.798;139.446;2023-03-24T00:50:45;0;0;
48893;PMS5003;34710;35.798;139.446;2023-03-24T00:53:10;0;0;
48893;PMS5003;34710;35.798;139.446;2023-03-24T00:55:35;0;0;
48893;PMS5003;34710;35.798;139.446;2023-03-24T00:58:00;0;0;
48893;PMS5003;34710;35.798;139.446;2023-03-24T01:00:25;1;0;
48893;PMS5003;34710;35.798;139.446;2023-03-24T01:02:51;0;0;
48893;PMS5003;34710;35.798;139.446;2023-03-24T01:05:15;0;0;
48893;PMS5003;34710;35.798;139.446;2023-03-24T01:07:40;0;0;
48893;PMS5003;34710;35.798;139.446;2023-03-24T01:10:05;0;0;
48893;PMS5003;34710;35.798;139.446;2023-03-24T01:12:31;2;0;
48893;PMS5003;34710;35.798;139.446;2023-03-24T01:14:56;0;0;
48893;PMS5003;34710;35.798;139.446;2023-03-24T01:17:21;0;0;
48893;PMS5003;34710;35.798;139.446;2023-03-24T01:19:45;0;0;
48893;PMS5003;34710;35.798;139.446;2023-03-24T01:22:10;1;0;
48893;PMS5003;34710;35.798;139.446;2023-03-24T01:24:35;0;0;
48893;PMS5003;34710;35.798;139.446;2023-03-24T01:27:00;0;0;
48893;PMS5003;34710;35.798;139.446;2023-03-24T01:29:26;1;0;
48893;PMS5003;34710;35.798;139.446;2023-03-24T01:31:51;0;0;
48893;PMS5003;34710;35.798;139.446;2023-03-24T01:34:16;0;0;
48893;PMS5003;34710;35.798;139.446;2023-03-24T01:36:41;0;0;
48893;PMS5003;34710;35.798;139.446;2023-03-24T01:39:06;2;0;
48893;PMS5003;34710;35.798;139.446;2023-03-24T01:41:31;0;0;
48893;PMS5003;34710;35.798;139.446;2023-03-24T01:43:56;0;0;
48893;PMS5003;34710;35.798;139.446;2023-03-24T01:46:22;1;1;
48893;PMS5003;34710;35.798;139.446;2023-03-24T01:48:49;1;1;
48893;PMS5003;34710;35.798;139.446;2023-03-24T01:51:13;1;1;
48893;PMS5003;34710;35.798;139.446;2023-03-24T01:53:39;0;0;
48893;PMS5003;34710;35.798;139.446;2023-03-24T01:56:02;2;2;
48893;PMS5003;34710;35.798;139.446;2023-03-24T01:58:27;0;0;
48893;PMS5003;34710;35.798;139.446;2023-03-24T02:00:51;1;1;
48893;PMS5003;34710;35.798;139.446;2023-03-24T02:03:17;1;1;
48893;PMS5003;34710;35.798;139.446;2023-03-24T02:05:42;1;0;
48893;PMS5003;34710;35.798;139.446;2023-03-24T02:08:08;0;0;
48893;PMS5003;34710;35.798;139.446;2023-03-24T02:10:32;1;1;
48893;PMS5003;34710;35.798;139.446;2023-03-24T02:12:57;0;0;
48893;PMS5003;34710;35.798;139.446;2023-03-24T02:15:22;0;0;
48893;PMS5003;34710;35.798;139.446;2023-03-24T02:17:53;0;0;
48893;PMS5003;34710;35.798;139.446;2023-03-24T02:27:33;1;0;
48893;PMS5003;34710;35.798;139.446;2023-03-24T02:32:22;1;1;
48893;PMS5003;34710;35.798;139.446;2023-03-24T02:39:39;0;0;
48893;PMS5003;34710;35.798;139.446;2023-03-24T02:41:59;0;0;
48893;PMS5003;34710;35.798;139.446;2023-03-24T02:44:24;0;0;
48893;PMS5003;34710;35.798;139.446;2023-03-24T02:46:49;1;1;
48893;PMS5003;34710;35.798;139.446;2023-03-24T02:49:17;0;0;
48893;PMS5003;34710;35.798;139.446;2023-03-24T02:51:40;1;1;
48893;PMS5003;34710;35.798;139.446;2023-03-24T02:54:06;0;0;
48893;PMS5003;34710;35.798;139.446;2023-03-24T02:56:30;1;1;
48893;PMS5003;34710;35.798;139.446;2023-03-24T02:58:54;0;0;
48893;PMS5003;34710;35.798;139.446;2023-03-24T03:01:19;1;1;
48893;PMS5003;34710;35.798;139.446;2023-03-24T03:03:44;1;1;
48893;PMS5003;34710;35.798;139.446;2023-03-24T03:06:10;7;1;
48893;PMS5003;34710;35.798;139.446;2023-03-24T03:08:34;0;0;
48893;PMS5003;34710;35.798;139.446;2023-03-24T03:11:00;1;1;
48893;PMS5003;34710;35.798;139.446;2023-03-24T03:13:25;2;0;
48893;PMS5003;34710;35.798;139.446;2023-03-24T03:15:50;2;0;
48893;PMS5003;34710;35.798;139.446;2023-03-24T03:18:16;0;0;
48893;PMS5003;34710;35.798;139.446;2023-03-24T03:20:41;0;0;
48893;PMS5003;34710;35.798;139.446;2023-03-24T03:23:06;0;0;
48893;PMS5003;34710;35.798;139.446;2023-03-24T03:25:31;2;1;
48893;PMS5003;34710;35.798;139.446;2023-03-24T03:27:56;0;0;
48893;PMS5003;34710;35.798;139.446;2023-03-24T03:30:21;0;0;
48893;PMS5003;34710;35.798;139.446;2023-03-24T03:32:47;0;0;
48893;PMS5003;34710;35.798;139.446;2023-03-24T03:35:11;1;0;
48893;PMS5003;34710;35.798;139.446;2023-03-24T03:37:36;2;2;
48893;PMS5003;34710;35.798;139.446;2023-03-24T03:40:01;0;0;
48893;PMS5003;34710;35.798;139.446;2023-03-24T03:42:25;2;2;
48893;PMS5003;34710;35.798;139.446;2023-03-24T03:44:50;2;2;
48893;PMS5003;34710;35.798;139.446;2023-03-24T03:47:15;1;1;
48893;PMS5003;34710;35.798;139.446;2023-03-24T03:49:40;2;2;
48893;PMS5003;34710;35.798;139.446;2023-03-24T03:52:06;3;3;
48893;PMS5003;34710;35.798;139.446;2023-03-24T03:54:31;0;0;
48893;PMS5003;34710;35.798;139.446;2023-03-24T03:56:56;0;0;
48893;PMS5003;34710;35.798;139.446;2023-03-24T03:59:22;0;0;
48893;PMS5003;34710;35.798;139.446;2023-03-24T04:01:46;0;0;
48893;PMS5003;34710;35.798;139.446;2023-03-24T04:06:37;0;0;
48893;PMS5003;34710;35.798;139.446;2023-03-24T04:09:03;0;0;
48893;PMS5003;34710;35.798;139.446;2023-03-24T04:13:55;3;3;
48893;PMS5003;34710;35.798;139.446;2023-03-24T04:16:18;1;1;
48893;PMS5003;34710;35.798;139.446;2023-03-24T04:18:45;1;0;
48893;PMS5003;34710;35.798;139.446;2023-03-24T04:21:09;0;0;
48893;PMS5003;34710;35.798;139.446;2023-03-24T04:23:33;0;0;
48893;PMS5003;34710;35.798;139.446;2023-03-24T04:26:00;0;0;
48893;PMS5003;34710;35.798;139.446;2023-03-24T04:28:22;1;1;
48893;PMS5003;34710;35.798;139.446;2023-03-24T04:30:48;1;0;
48893;PMS5003;34710;35.798;139.446;2023-03-24T04:33:13;0;0;
48893;PMS5003;34710;35.798;139.446;2023-03-24T04:35:37;1;1;
48893;PMS5003;34710;35.798;139.446;2023-03-24T04:38:03;0;0;
48893;PMS5003;34710;35.798;139.446;2023-03-24T04:40:27;2;2;
48893;PMS5003;34710;35.798;139.446;2023-03-24T04:42:52;6;2;
48893;PMS5003;34710;35.798;139.446;2023-03-24T04:45:17;6;5;
48893;PMS5003;34710;35.798;139.446;2023-03-24T04:47:43;7;6;
48893;PMS5003;34710;35.798;139.446;2023-03-24T04:50:08;5;5;
48893;PMS5003;34710;35.798;139.446;2023-03-24T04:52:33;3;3;
48893;PMS5003;34710;35.798;139.446;2023-03-24T04:54:58;4;4;
48893;PMS5003;34710;35.798;139.446;2023-03-24T04:57:22;1;1;
48893;PMS5003;34710;35.798;139.446;2023-03-24T04:59:47;1;1;
48893;PMS5003;34710;35.798;139.446;2023-03-24T05:02:12;1;0;
48893;PMS5003;34710;35.798;139.446;2023-03-24T05:04:38;0;0;
48893;PMS5003;34710;35.798;139.446;2023-03-24T05:07:03;1;1;
48893;PMS5003;34710;35.798;139.446;2023-03-24T05:09:28;0;0;
48893;PMS5003;34710;35.798;139.446;2023-03-24T05:11:53;3;1;
48893;PMS5003;34710;35.798;139.446;2023-03-24T05:14:18;1;1;
48893;PMS5003;34710;35.798;139.446;2023-03-24T05:16:43;1;1;
48893;PMS5003;34710;35.798;139.446;2023-03-24T05:19:09;1;1;
48893;PMS5003;34710;35.798;139.446;2023-03-24T05:21:33;2;2;
48893;PMS5003;34710;35.798;139.446;2023-03-24T05:23:58;3;2;
48893;PMS5003;34710;35.798;139.446;2023-03-24T05:26:23;1;1;
48893;PMS5003;34710;35.798;139.446;2023-03-24T05:28:48;1;1;
48893;PMS5003;34710;35.798;139.446;2023-03-24T05:31:14;13;1;
48893;PMS5003;34710;35.798;139.446;2023-03-24T05:33:39;0;0;
48893;PMS5003;34710;35.798;139.446;2023-03-24T05:36:05;1;1;
48893;PMS5003;34710;35.798;139.446;2023-03-24T05:38:30;2;2;
48893;PMS5003;34710;35.798;139.446;2023-03-24T05:40:55;3;2;
48893;PMS5003;34710;35.798;139.446;2023-03-24T05:43:20;2;1;
48893;PMS5003;34710;35.798;139.446;2023-03-24T05:45:45;0;0;
48893;PMS5003;34710;35.798;139.446;2023-03-24T05:48:10;2;2;
48893;PMS5003;34710;35.798;139.446;2023-03-24T05:50:35;2;1;
48893;PMS5003;34710;35.798;139.446;2023-03-24T05:53:00;2;2;
48893;PMS5003;34710;35.798;139.446;2023-03-24T05:55:25;1;1;
48893;PMS5003;34710;35.798;139.446;2023-03-24T05:57:50;2;1;
48893;PMS5003;34710;35.798;139.446;2023-03-24T06:00:16;1;1;
48893;PMS5003;34710;35.798;139.446;2023-03-24T06:02:40;2;2;
48893;PMS5003;34710;35.798;139.446;2023-03-24T06:05:06;1;0;
48893;PMS5003;34710;35.798;139.446;2023-03-24T06:07:30;2;2;
48893;PMS5003;34710;35.798;139.446;2023-03-24T06:09:56;1;1;
48893;PMS5003;34710;35.798;139.446;2023-03-24T06:12:21;6;3;
48893;PMS5003;34710;35.798;139.446;2023-03-24T06:14:46;2;2;
48893;PMS5003;34710;35.798;139.446;2023-03-24T06:17:11;1;1;
48893;PMS5003;34710;35.798;139.446;2023-03-24T06:19:36;0;0;
48893;PMS5003;34710;35.798;139.446;2023-03-24T06:22:02;1;1;
48893;PMS5003;34710;35.798;139.446;2023-03-24T06:24:28;0;0;
48893;PMS5003;34710;35.798;139.446;2023-03-24T06:26:52;0;0;
48893;PMS5003;34710;35.798;139.446;2023-03-24T06:29:18;0;0;
48893;PMS5003;34710;35.798;139.446;2023-03-24T06:31:43;0;0;
48893;PMS5003;34710;35.798;139.446;2023-03-24T06:34:08;0;0;
48893;PMS5003;34710;35.798;139.446;2023-03-24T06:36:34;1;1;
48893;PMS5003;34710;35.798;139.446;2023-03-24T06:38:59;0;0;
48893;PMS5003;34710;35.798;139.446;2023-03-24T06:41:25;0;0;
48893;PMS5003;34710;35.798;139.446;2023-03-24T06:43:50;0;0;
48893;PMS5003;34710;35.798;139.446;2023-03-24T06:46:15;0;0;
48893;PMS5003;34710;35.798;139.446;2023-03-24T06:48:41;0;0;
48893;PMS5003;34710;35.798;139.446;2023-03-24T06:51:07;0;0;
48893;PMS5003;34710;35.798;139.446;2023-03-24T06:53:32;0;0;
48893;PMS5003;34710;35.798;139.446;2023-03-24T06:55:57;0;0;
48893;PMS5003;34710;35.798;139.446;2023-03-24T06:58:23;0;0;
48893;PMS5003;34710;35.798;139.446;2023-03-24T07:00:48;0;0;
48893;PMS5003;34710;35.798;139.446;2023-03-24T07:03:14;0;0;
48893;PMS5003;34710;35.798;139.446;2023-03-24T07:05:39;0;0;
48893;PMS5003;34710;35.798;139.446;2023-03-24T07:08:04;0;0;
48893;PMS5003;34710;35.798;139.446;2023-03-24T07:10:30;0;0;
48893;PMS5003;34710;35.798;139.446;2023-03-24T07:12:55;0;0;
48893;PMS5003;34710;35.798;139.446;2023-03-24T07:15:21;0;0;
48893;PMS5003;34710;35.798;139.446;2023-03-24T07:17:46;0;0;
48893;PMS5003;34710;35.798;139.446;2023-03-24T07:20:11;0;0;
48893;PMS5003;34710;35.798;139.446;2023-03-24T07:22:37;0;0;
48893;PMS5003;34710;35.798;139.446;2023-03-24T07:25:02;0;0;
48893;PMS5003;34710;35.798;139.446;2023-03-24T07:27:27;0;0;
48893;PMS5003;34710;35.798;139.446;2023-03-24T07:29:53;0;0;
48893;PMS5003;34710;35.798;139.446;2023-03-24T07:32:18;0;0;
48893;PMS5003;34710;35.798;139.446;2023-03-24T07:34:44;0;0;
48893;PMS5003;34710;35.798;139.446;2023-03-24T07:37:09;0;0;
48893;PMS5003;34710;35.798;139.446;2023-03-24T07:39:34;0;0;
48893;PMS5003;34710;35.798;139.446;2023-03-24T07:42:00;0;0;
48893;PMS5003;34710;35.798;139.446;2023-03-24T07:44:25;0;0;
48893;PMS5003;34710;35.798;139.446;2023-03-24T07:46:50;0;0;
48893;PMS5003;34710;35.798;139.446;2023-03-24T07:49:16;0;0;
48893;PMS5003;34710;35.798;139.446;2023-03-24T07:51:41;1;1;
48893;PMS5003;34710;35.798;139.446;2023-03-24T07:54:07;0;0;
48893;PMS5003;34710;35.798;139.446;2023-03-24T07:56:32;0;0;
48893;PMS5003;34710;35.798;139.446;2023-03-24T07:58:58;0;0;
48893;PMS5003;34710;35.798;139.446;2023-03-24T08:01:23;0;0;
48893;PMS5003;34710;35.798;139.446;2023-03-24T08:03:48;0;0;
48893;PMS5003;34710;35.798;139.446;2023-03-24T08:06:14;0;0;
48893;PMS5003;34710;35.798;139.446;2023-03-24T08:08:39;0;0;
48893;PMS5003;34710;35.798;139.446;2023-03-24T08:11:05;0;0;
48893;PMS5003;34710;35.798;139.446;2023-03-24T08:13:30;0;0;
48893;PMS5003;34710;35.798;139.446;2023-03-24T08:15:55;0;0;
48893;PMS5003;34710;35.798;139.446;2023-03-24T08:18:21;0;0;
48893;PMS5003;34710;35.798;139.446;2023-03-24T08:20:46;1;1;
48893;PMS5003;34710;35.798;139.446;2023-03-24T08:23:12;0;0;
48893;PMS5003;34710;35.798;139.446;2023-03-24T08:25:37;0;0;
48893;PMS5003;34710;35.798;139.446;2023-03-24T08:28:03;0;0;
48893;PMS5003;34710;35.798;139.446;2023-03-24T08:30:28;1;1;
48893;PMS5003;34710;35.798;139.446;2023-03-24T08:32:54;0;0;
48893;PMS5003;34710;35.798;139.446;2023-03-24T08:35:20;0;0;
48893;PMS5003;34710;35.798;139.446;2023-03-24T08:37:44;0;0;
48893;PMS5003;34710;35.798;139.446;2023-03-24T08:40:10;0;0;
48893;PMS5003;34710;35.798;139.446;2023-03-24T08:42:35;0;0;
48893;PMS5003;34710;35.798;139.446;2023-03-24T08:45:00;0;0;
48893;PMS5003;34710;35.798;139.446;2023-03-24T08:47:25;0;0;
48893;PMS5003;34710;35.798;139.446;2023-03-24T08:49:54;0;0;
48893;PMS5003;34710;35.798;139.446;2023-03-24T08:52:16;0;0;
48893;PMS5003;34710;35.798;139.446;2023-03-24T08:54:42;0;0;
48893;PMS5003;34710;35.798;139.446;2023-03-24T08:57:07;1;1;
48893;PMS5003;34710;35.798;139.446;2023-03-24T08:59:32;0;0;
48893;PMS5003;34710;35.798;139.446;2023-03-24T09:01:58;0;0;
48893;PMS5003;34710;35.798;139.446;2023-03-24T09:04:23;0;0;
48893;PMS5003;34710;35.798;139.446;2023-03-24T09:06:49;0;0;
48893;PMS5003;34710;35.798;139.446;2023-03-24T09:09:14;1;1;
48893;PMS5003;34710;35.798;139.446;2023-03-24T09:11:39;0;0;
48893;PMS5003;34710;35.798;139.446;2023-03-24T09:14:05;0;0;
48893;PMS5003;34710;35.798;139.446;2023-03-24T09:16:31;0;0;
48893;PMS5003;34710;35.798;139.446;2023-03-24T09:18:56;0;0;
48893;PMS5003;34710;35.798;139.446;2023-03-24T09:21:21;0;0;
48893;PMS5003;34710;35.798;139.446;2023-03-24T09:23:47;0;0;
48893;PMS5003;34710;35.798;139.446;2023-03-24T09:26:12;0;0;
48893;PMS5003;34710;35.798;139.446;2023-03-24T09:28:37;0;0;
48893;PMS5003;34710;35.798;139.446;2023-03-24T09:31:03;0;0;
48893;PMS5003;34710;35.798;139.446;2023-03-24T09:33:28;0;0;
48893;PMS5003;34710;35.798;139.446;2023-03-24T09:35:54;0;0;
48893;PMS5003;34710;35.798;139.446;2023-03-24T09:38:19;0;0;
48893;PMS5003;34710;35.798;139.446;2023-03-24T09:40:45;0;0;
48893;PMS5003;34710;35.798;139.446;2023-03-24T09:43:13;0;0;
48893;PMS5003;34710;35.798;139.446;2023-03-24T09:45:36;0;0;
48893;PMS5003;34710;35.798;139.446;2023-03-24T09:48:02;0;0;
48893;PMS5003;34710;35.798;139.446;2023-03-24T09:50:27;0;0;
48893;PMS5003;34710;35.798;139.446;2023-03-24T09:52:53;0;0;
48893;PMS5003;34710;35.798;139.446;2023-03-24T09:55:18;0;0;
48893;PMS5003;34710;35.798;139.446;2023-03-24T09:57:43;0;0;
48893;PMS5003;34710;35.798;139.446;2023-03-24T10:02:33;0;0;
48893;PMS5003;34710;35.798;139.446;2023-03-24T10:04:58;0;0;
48893;PMS5003;34710;35.798;139.446;2023-03-24T10:07:26;0;0;
48893;PMS5003;34710;35.798;139.446;2023-03-24T10:09:51;0;0;
48893;PMS5003;34710;35.798;139.446;2023-03-24T10:12:18;0;0;
48893;PMS5003;34710;35.798;139.446;2023-03-24T10:14:45;0;0;
48893;PMS5003;34710;35.798;139.446;2023-03-24T10:17:08;0;0;
48893;PMS5003;34710;35.798;139.446;2023-03-24T10:19:36;1;1;
48893;PMS5003;34710;35.798;139.446;2023-03-24T10:21:59;0;0;
48893;PMS5003;34710;35.798;139.446;2023-03-24T10:24:22;0;0;
48893;PMS5003;34710;35.798;139.446;2023-03-24T10:26:48;0;0;
48893;PMS5003;34710;35.798;139.446;2023-03-24T10:29:15;0;0;
48893;PMS5003;34710;35.798;139.446;2023-03-24T10:31:37;0;0;
48893;PMS5003;34710;35.798;139.446;2023-03-24T10:34:03;0;0;
48893;PMS5003;34710;35.798;139.446;2023-03-24T10:36:28;0;0;
48893;PMS5003;34710;35.798;139.446;2023-03-24T10:38:54;0;0;
48893;PMS5003;34710;35.798;139.446;2023-03-24T10:41:20;0;0;
48893;PMS5003;34710;35.798;139.446;2023-03-24T10:43:45;0;0;
48893;PMS5003;34710;35.798;139.446;2023-03-24T10:46:11;0;0;
48893;PMS5003;34710;35.798;139.446;2023-03-24T10:48:41;0;0;
48893;PMS5003;34710;35.798;139.446;2023-03-24T10:51:01;0;0;
48893;PMS5003;34710;35.798;139.446;2023-03-24T10:53:26;0;0;
48893;PMS5003;34710;35.798;139.446;2023-03-24T10:55:52;0;0;
48893;PMS5003;34710;35.798;139.446;2023-03-24T10:58:18;0;0;
48893;PMS5003;34710;35.798;139.446;2023-03-24T11:00:42;0;0;
48893;PMS5003;34710;35.798;139.446;2023-03-24T11:03:10;0;0;
48893;PMS5003;34710;35.798;139.446;2023-03-24T11:05:35;0;0;
48893;PMS5003;34710;35.798;139.446;2023-03-24T11:08:09;0;0;
48893;PMS5003;34710;35.798;139.446;2023-03-24T11:10:24;0;0;
48893;PMS5003;34710;35.798;139.446;2023-03-24T11:15:16;0;0;
48893;PMS5003;34710;35.798;139.446;2023-03-24T11:17:41;0;0;
48893;PMS5003;34710;35.798;139.446;2023-03-24T11:22:31;0;0;
48893;PMS5003;34710;35.798;139.446;2023-03-24T11:24:56;0;0;
48893;PMS5003;34710;35.798;139.446;2023-03-24T11:27:22;0;0;
48893;PMS5003;34710;35.798;139.446;2023-03-24T11:29:48;0;0;
48893;PMS5003;34710;35.798;139.446;2023-03-24T11:32:13;0;0;
48893;PMS5003;34710;35.798;139.446;2023-03-24T11:34:38;0;0;
48893;PMS5003;34710;35.798;139.446;2023-03-24T11:37:03;0;0;
48893;PMS5003;34710;35.798;139.446;2023-03-24T11:39:29;0;0;
48893;PMS5003;34710;35.798;139.446;2023-03-24T11:42:01;1;1;
48893;PMS5003;34710;35.798;139.446;2023-03-24T11:44:20;0;0;
48893;PMS5003;34710;35.798;139.446;2023-03-24T11:46:45;0;0;
48893;PMS5003;34710;35.798;139.446;2023-03-24T11:49:11;0;0;
48893;PMS5003;34710;35.798;139.446;2023-03-24T11:51:37;0;0;
48893;PMS5003;34710;35.798;139.446;2023-03-24T11:54:02;0;0;
48893;PMS5003;34710;35.798;139.446;2023-03-24T11:56:28;0;0;
48893;PMS5003;34710;35.798;139.446;2023-03-24T11:58:54;1;1;
48893;PMS5003;34710;35.798;139.446;2023-03-24T12:01:20;0;0;
48893;PMS5003;34710;35.798;139.446;2023-03-24T12:06:13;0;0;
48893;PMS5003;34710;35.798;139.446;2023-03-24T12:08:37;0;0;
48893;PMS5003;34710;35.798;139.446;2023-03-24T12:11:02;0;0;
48893;PMS5003;34710;35.798;139.446;2023-03-24T12:13:29;0;0;
48893;PMS5003;34710;35.798;139.446;2023-03-24T12:15:52;0;0;
48893;PMS5003;34710;35.798;139.446;2023-03-24T12:18:21;0;0;
48893;PMS5003;34710;35.798;139.446;2023-03-24T12:20:42;0;0;
48893;PMS5003;34710;35.798;139.446;2023-03-24T12:23:07;0;0;
48893;PMS5003;34710;35.798;139.446;2023-03-24T12:28:01;0;0;
48893;PMS5003;34710;35.798;139.446;2023-03-24T12:30:24;0;0;
48893;PMS5003;34710;35.798;139.446;2023-03-24T12:32:50;0;0;
48893;PMS5003;34710;35.798;139.446;2023-03-24T12:37:40;0;0;
48893;PMS5003;34710;35.798;139.446;2023-03-24T12:40:10;0;0;
48893;PMS5003;34710;35.798;139.446;2023-03-24T12:42:29;0;0;
48893;PMS5003;34710;35.798;139.446;2023-03-24T12:47:24;0;0;
48893;PMS5003;34710;35.798;139.446;2023-03-24T12:49:50;0;0;
48893;PMS5003;34710;35.798;139.446;2023-03-24T12:54:37;0;0;
48893;PMS5003;34710;35.798;139.446;2023-03-24T12:57:02;0;0;
48893;PMS5003;34710;35.798;139.446;2023-03-24T12:59:29;0;0;
48893;PMS5003;34710;35.798;139.446;2023-03-24T13:01:54;1;1;
48893;PMS5003;34710;35.798;139.446;2023-03-24T13:04:19;0;0;
48893;PMS5003;34710;35.798;139.446;2023-03-24T13:06:44;0;0;
48893;PMS5003;34710;35.798;139.446;2023-03-24T13:09:12;0;0;
48893;PMS5003;34710;35.798;139.446;2023-03-24T13:11:37;0;0;
48893;PMS5003;34710;35.798;139.446;2023-03-24T13:14:00;0;0;
48893;PMS5003;34710;35.798;139.446;2023-03-24T13:16:25;0;0;
48893;PMS5003;34710;35.798;139.446;2023-03-24T13:18:51;0;0;
48893;PMS5003;34710;35.798;139.446;2023-03-24T13:21:50;2;2;
48893;PMS5003;34710;35.798;139.446;2023-03-24T13:24:16;3;3;
48893;PMS5003;34710;35.798;139.446;2023-03-24T13:26:43;7;6;
48893;PMS5003;34710;35.798;139.446;2023-03-24T13:29:11;5;4;
48893;PMS5003;34710;35.798;139.446;2023-03-24T13:31:33;3;3;
48893;PMS5003;34710;35.798;139.446;2023-03-24T13:33:57;6;4;
48893;PMS5003;34710;35.798;139.446;2023-03-24T13:36:26;6;5;
48893;PMS5003;34710;35.798;139.446;2023-03-24T13:38:48;4;4;
48893;PMS5003;34710;35.798;139.446;2023-03-24T13:41:16;4;3;
48893;PMS5003;34710;35.798;139.446;2023-03-24T13:43:38;5;5;
48893;PMS5003;34710;35.798;139.446;2023-03-24T13:46:03;6;5;
48893;PMS5003;34710;35.798;139.446;2023-03-24T13:48:31;8;6;
48893;PMS5003;34710;35.798;139.446;2023-03-24T13:50:54;5;5;
48893;PMS5003;34710;35.798;139.446;2023-03-24T13:53:29;5;5;
48893;PMS5003;34710;35.798;139.446;2023-03-24T13:55:45;9;6;
48893;PMS5003;34710;35.798;139.446;2023-03-24T13:58:11;7;5;
48893;PMS5003;34710;35.798;139.446;2023-03-24T14:00:34;6;5;
48893;PMS5003;34710;35.798;139.446;2023-03-24T14:05:30;6;6;
48893;PMS5003;34710;35.798;139.446;2023-03-24T14:07:49;7;7;
48893;PMS5003;34710;35.798;139.446;2023-03-24T14:15:12;7;6;
48893;PMS5003;34710;35.798;139.446;2023-03-24T14:17:30;7;7;
48893;PMS5003;34710;35.798;139.446;2023-03-24T14:22:30;5;5;
48893;PMS5003;34710;35.798;139.446;2023-03-24T14:24:53;8;6;
48893;PMS5003;34710;35.798;139.446;2023-03-24T14:29:39;8;5;
48893;PMS5003;34710;35.798;139.446;2023-03-24T14:32:02;7;5;
48893;PMS5003;34710;35.798;139.446;2023-03-24T14:34:27;3;3;
48893;PMS5003;34710;35.798;139.446;2023-03-24T14:36:56;7;6;
48893;PMS5003;34710;35.798;139.446;2023-03-24T14:39:21;7;6;
48893;PMS5003;34710;35.798;139.446;2023-03-24T14:41:42;6;6;
48893;PMS5003;34710;35.798;139.446;2023-03-24T14:44:07;10;7;
48893;PMS5003;34710;35.798;139.446;2023-03-24T14:46:34;9;8;
48893;PMS5003;34710;35.798;139.446;2023-03-24T14:48:59;7;7;
48893;PMS5003;34710;35.798;139.446;2023-03-24T14:51:30;7;7;
48893;PMS5003;34710;35.798;139.446;2023-03-24T14:53:48;7;5;
48893;PMS5003;34710;35.798;139.446;2023-03-24T14:56:15;6;6;
48893;PMS5003;34710;35.798;139.446;2023-03-24T14:58:38;7;7;
48893;PMS5003;34710;35.798;139.446;2023-03-24T15:01:04;6;6;
48893;PMS5003;34710;35.798;139.446;2023-03-24T15:03:30;7;7;
48893;PMS5003;34710;35.798;139.446;2023-03-24T15:05:54;6;6;
48893;PMS5003;34710;35.798;139.446;2023-03-24T15:08:20;17;8;
48893;PMS5003;34710;35.798;139.446;2023-03-24T15:10:46;6;6;
48893;PMS5003;34710;35.798;139.446;2023-03-24T15:15:35;6;5;
48893;PMS5003;34710;35.798;139.446;2023-03-24T15:18:00;8;6;
48893;PMS5003;34710;35.798;139.446;2023-03-24T15:20:26;8;6;
48893;PMS5003;34710;35.798;139.446;2023-03-24T15:22:51;5;4;
48893;PMS5003;34710;35.798;139.446;2023-03-24T15:25:16;4;4;
48893;PMS5003;34710;35.798;139.446;2023-03-24T15:27:47;12;5;
48893;PMS5003;34710;35.798;139.446;2023-03-24T15:32:31;12;7;
48893;PMS5003;34710;35.798;139.446;2023-03-24T15:34:57;8;7;
48893;PMS5003;34710;35.798;139.446;2023-03-24T15:37:22;7;7;
48893;PMS5003;34710;35.798;139.446;2023-03-24T15:39:48;13;6;
48893;PMS5003;34710;35.798;139.446;2023-03-24T15:42:13;9;6;
48893;PMS5003;34710;35.798;139.446;2023-03-24T15:44:38;9;6;
48893;PMS5003;34710;35.798;139.446;2023-03-24T15:47:05;10;8;
48893;PMS5003;34710;35.798;139.446;2023-03-24T15:49:29;8;5;
48893;PMS5003;34710;35.798;139.446;2023-03-24T15:51:55;9;7;
48893;PMS5003;34710;35.798;139.446;2023-03-24T15:54:20;10;7;
48893;PMS5003;34710;35.798;139.446;2023-03-24T15:56:49;13;9;
48893;PMS5003;34710;35.798;139.446;2023-03-24T15:59:12;14;8;
48893;PMS5003;34710;35.798;139.446;2023-03-24T16:01:35;12;8;
48893;PMS5003;34710;35.798;139.446;2023-03-24T16:04:01;15;9;
48893;PMS5003;34710;35.798;139.446;2023-03-24T16:06:27;10;5;
48893;PMS5003;34710;35.798;139.446;2023-03-24T16:08:52;14;10;
48893;PMS5003;34710;35.798;139.446;2023-03-24T16:11:17;17;7;
48893;PMS5003;34710;35.798;139.446;2023-03-24T16:13:43;14;7;
48893;PMS5003;34710;35.798;139.446;2023-03-24T16:16:10;17;9;
48893;PMS5003;34710;35.798;139.446;2023-03-24T16:18:34;26;10;
48893;PMS5003;34710;35.798;139.446;2023-03-24T16:20:58;27;11;
48893;PMS5003;34710;35.798;139.446;2023-03-24T16:23:24;39;17;
48893;PMS5003;34710;35.798;139.446;2023-03-24T16:25:49;28;12;
48893;PMS5003;34710;35.798;139.446;2023-03-24T16:28:17;25;14;
48893;PMS5003;34710;35.798;139.446;2023-03-24T16:30:40;32;13;
48893;PMS5003;34710;35.798;139.446;2023-03-24T16:33:05;25;13;
48893;PMS5003;34710;35.798;139.446;2023-03-24T16:35:31;30;11;
48893;PMS5003;34710;35.798;139.446;2023-03-24T16:37:56;33;15;
48893;PMS5003;34710;35.798;139.446;2023-03-24T16:40:24;31;14;
48893;PMS5003;34710;35.798;139.446;2023-03-24T16:42:47;31;16;
48893;PMS5003;34710;35.798;139.446;2023-03-24T16:45:12;34;12;
48893;PMS5003;34710;35.798;139.446;2023-03-24T16:47:38;23;15;
48893;PMS5003;34710;35.798;139.446;2023-03-24T16:52:28;25;12;
48893;PMS5003;34710;35.798;139.446;2023-03-24T16:54:54;18;10;
48893;PMS5003;34710;35.798;139.446;2023-03-24T16:57:19;18;10;
48893;PMS5003;34710;35.798;139.446;2023-03-24T16:59:45;23;10;
48893;PMS5003;34710;35.798;139.446;2023-03-24T17:02:10;13;9;